createdAt,value
2022-12-15T00:02:17.186Z,99.90
2022-12-15T00:05:03.904Z,99.90
2022-12-15T00:07:49.480Z,99.90
2022-12-15T00:10:35.206Z,99.90
2022-12-15T00:13:20.489Z,99.90
2022-12-15T00:16:05.677Z,99.90
2022-12-15T00:18:51.108Z,1.00
2022-12-15T00:21:37.811Z,1.00
2022-12-15T00:24:23.284Z,38.90
2022-12-15T00:27:08.485Z,1.00
2022-12-15T00:29:53.392Z,99.90
2022-12-15T00:32:38.638Z,99.90
2022-12-15T00:35:24.351Z,99.90
2022-12-15T00:38:10.728Z,99.90
2022-12-15T00:40:38.544Z,99.90
2022-12-15T00:43:06.457Z,99.90
2022-12-15T00:45:48.151Z,99.90
2022-12-15T00:48:16.205Z,99.90
2022-12-15T00:50:53.137Z,99.90
2022-12-15T00:53:40.353Z,99.90
2022-12-15T00:56:26.072Z,99.90
2022-12-15T00:59:11.715Z,99.90
2022-12-15T01:01:56.981Z,99.90
2022-12-15T01:04:42.511Z,99.90
2022-12-15T01:07:27.634Z,99.90
2022-12-15T01:10:14.642Z,99.90
2022-12-15T01:12:59.874Z,99.90
2022-12-15T01:15:45.415Z,99.90
2022-12-15T01:18:30.991Z,99.90
2022-12-15T01:20:59.322Z,99.90
2022-12-15T01:23:27.491Z,99.90
2022-12-15T01:25:56.949Z,99.90
2022-12-15T01:28:25.364Z,99.90
2022-12-15T01:30:53.414Z,99.90
2022-12-15T01:33:21.482Z,99.90
2022-12-15T01:35:55.982Z,99.90
2022-12-15T01:38:23.850Z,99.90
2022-12-15T01:40:51.847Z,99.90
2022-12-15T01:43:22.414Z,99.90
2022-12-15T01:45:58.239Z,99.90
2022-12-15T01:48:35.455Z,99.90
2022-12-15T01:51:08.205Z,99.90
2022-12-15T01:53:38.727Z,1.00
2022-12-15T01:56:07.403Z,1.00
2022-12-15T01:58:37.277Z,99.90
2022-12-15T02:01:05.239Z,99.90
2022-12-15T02:03:33.642Z,99.90
2022-12-15T02:06:01.935Z,99.90
2022-12-15T02:08:30.174Z,99.90
2022-12-15T02:11:04.282Z,99.90
2022-12-15T02:13:36.455Z,99.90
2022-12-15T02:16:11.179Z,99.90
2022-12-15T02:18:44.533Z,99.90
2022-12-15T02:21:15.822Z,1.00
2022-12-15T02:24:12.168Z,1.00
2022-12-15T02:26:53.852Z,99.90
2022-12-15T02:29:32.684Z,99.90
2022-12-15T02:32:04.626Z,99.90
2022-12-15T02:34:35.874Z,99.90
2022-12-15T02:37:07.061Z,99.90
2022-12-15T02:39:34.925Z,99.90
2022-12-15T02:42:02.793Z,99.90
2022-12-15T02:44:33.318Z,99.90
2022-12-15T02:47:13.745Z,99.90
2022-12-15T02:49:47.102Z,99.90
2022-12-15T02:52:26.138Z,99.90
2022-12-15T02:55:07.613Z,99.90
2022-12-15T02:57:39.595Z,99.90
2022-12-15T03:00:10.113Z,99.90
2022-12-15T03:02:41.862Z,99.90
2022-12-15T03:05:11.135Z,99.90
2022-12-15T03:07:42.971Z,99.90
2022-12-15T03:10:12.972Z,99.90
2022-12-15T03:12:41.625Z,99.90
2022-12-15T03:15:10.507Z,99.90
2022-12-15T03:17:40.458Z,99.90
2022-12-15T03:20:09.927Z,99.90
2022-12-15T03:22:38.220Z,99.90
2022-12-15T03:25:07.067Z,1.00
2022-12-15T03:27:36.373Z,99.90
2022-12-15T03:30:05.310Z,99.90
2022-12-15T03:32:33.432Z,99.90
2022-12-15T03:35:03.219Z,99.90
2022-12-15T03:37:31.669Z,99.90
2022-12-15T03:39:59.820Z,99.90
2022-12-15T03:42:45.364Z,99.90
2022-12-15T03:45:13.572Z,99.90
2022-12-15T03:47:42.288Z,99.90
2022-12-15T03:50:13.799Z,99.90
2022-12-15T03:52:41.985Z,99.90
2022-12-15T03:55:11.642Z,99.90
2022-12-15T03:57:39.970Z,99.90
2022-12-15T04:00:09.021Z,99.90
2022-12-15T04:02:37.442Z,99.90
2022-12-15T04:05:05.930Z,99.90
2022-12-15T04:07:35.731Z,99.90
2022-12-15T04:10:03.908Z,99.90
2022-12-15T04:12:32.159Z,99.90
2022-12-15T04:15:00.400Z,99.90
2022-12-15T04:17:28.875Z,99.90
2022-12-15T04:20:12.494Z,99.90
2022-12-15T04:22:43.012Z,99.90
2022-12-15T04:25:29.413Z,99.90
2022-12-15T04:28:14.895Z,1.00
2022-12-15T04:31:03.040Z,99.90
2022-12-15T04:33:48.657Z,99.90
2022-12-15T04:36:34.717Z,99.90
2022-12-15T04:39:22.864Z,99.90
2022-12-15T04:42:08.344Z,99.90
2022-12-15T04:44:54.264Z,99.90
2022-12-15T04:47:39.703Z,99.90
2022-12-15T04:50:25.667Z,99.90
2022-12-15T04:53:11.160Z,99.90
2022-12-15T04:55:58.782Z,99.90
2022-12-15T04:58:44.627Z,99.90
2022-12-15T05:01:30.364Z,99.90
2022-12-15T05:04:15.914Z,99.90
2022-12-15T05:07:01.659Z,99.90
2022-12-15T05:09:47.032Z,99.90
2022-12-15T05:12:34.235Z,99.90
2022-12-15T05:15:19.795Z,99.90
2022-12-15T05:18:05.273Z,1.00
2022-12-15T05:20:50.967Z,1.00
2022-12-15T05:23:36.476Z,99.90
2022-12-15T05:26:22.254Z,99.90
2022-12-15T05:29:09.292Z,99.90
2022-12-15T05:31:53.124Z,99.90
2022-12-15T05:34:22.875Z,99.90
2022-12-15T05:36:51.414Z,99.90
2022-12-15T05:39:19.756Z,99.90
2022-12-15T05:41:48.021Z,99.90
2022-12-15T05:44:19.362Z,1.00
2022-12-15T05:46:48.170Z,99.90
2022-12-15T05:49:17.463Z,1.00
2022-12-15T05:51:46.779Z,1.00
2022-12-15T05:54:16.693Z,99.90
2022-12-15T05:56:45.580Z,99.90
2022-12-15T05:59:14.670Z,99.90
2022-12-15T06:01:45.106Z,99.90
2022-12-15T06:04:14.171Z,99.90
2022-12-15T06:07:00.315Z,99.90
2022-12-15T06:09:44.191Z,99.90
2022-12-15T06:12:18.086Z,1.00
2022-12-15T06:14:49.896Z,99.90
2022-12-15T06:17:23.660Z,99.90
2022-12-15T06:20:01.235Z,1.00
2022-12-15T06:22:33.099Z,99.90
2022-12-15T06:25:15.928Z,99.90
2022-12-15T06:27:45.287Z,99.90
2022-12-15T06:33:24.434Z,1.00
2022-12-15T06:36:07.542Z,99.90
2022-12-15T06:41:45.090Z,99.90
2022-12-15T06:50:17.555Z,99.90
2022-12-15T06:52:50.225Z,1.00
2022-12-15T06:55:38.786Z,1.00
2022-12-15T06:58:22.838Z,1.00
2022-12-15T07:04:13.358Z,99.90
2022-12-15T07:09:57.309Z,1.00
2022-12-15T07:15:24.741Z,99.90
2022-12-15T07:17:55.352Z,99.90
2022-12-15T07:20:28.596Z,1.00
2022-12-15T07:22:56.946Z,1.00
2022-12-15T07:25:25.300Z,1.00
2022-12-15T07:27:53.437Z,1.00
2022-12-15T07:30:21.310Z,1.00
2022-12-15T07:32:50.632Z,1.00
2022-12-15T07:35:19.083Z,1.00
2022-12-15T07:37:47.101Z,99.90
2022-12-15T07:40:14.990Z,99.90
2022-12-15T07:42:42.909Z,99.90
2022-12-15T07:45:12.018Z,1.00
2022-12-15T07:47:39.939Z,1.00
2022-12-15T07:50:09.768Z,1.00
2022-12-15T07:52:37.679Z,1.00
2022-12-15T07:55:05.919Z,1.00
2022-12-15T07:57:33.960Z,1.00
2022-12-15T08:00:01.807Z,1.00
2022-12-15T08:02:29.821Z,1.00
2022-12-15T08:04:57.817Z,1.00
2022-12-15T08:07:27.049Z,1.00
2022-12-15T08:09:54.957Z,99.90
2022-12-15T08:12:22.849Z,99.90
2022-12-15T08:14:50.773Z,1.00
2022-12-15T08:24:19.367Z,1.00
2022-12-15T08:26:50.103Z,4.10
2022-12-15T08:29:49.673Z,1.00
2022-12-15T08:32:06.991Z,99.90
2022-12-15T08:34:35.484Z,99.90
2022-12-15T08:37:03.401Z,1.00
2022-12-15T08:39:32.640Z,1.00
2022-12-15T08:42:00.480Z,79.90
2022-12-15T08:44:28.333Z,99.90
2022-12-15T08:46:56.208Z,1.00
2022-12-15T08:49:24.098Z,99.90
2022-12-15T08:51:52.438Z,99.90
2022-12-15T08:54:20.832Z,99.90
2022-12-15T08:56:50.123Z,1.00
2022-12-15T08:59:19.048Z,1.00
2022-12-15T09:01:47.088Z,1.00
2022-12-15T09:06:43.678Z,99.90
2022-12-15T09:09:14.395Z,1.00
2022-12-15T09:11:42.228Z,34.20
2022-12-15T09:14:11.475Z,1.00
2022-12-15T09:16:39.664Z,1.00
2022-12-15T09:19:08.318Z,1.00
2022-12-15T09:21:36.254Z,1.00
2022-12-15T09:24:04.399Z,99.90
2022-12-15T09:26:33.045Z,1.00
2022-12-15T09:29:01.811Z,99.90
2022-12-15T09:31:32.739Z,1.00
2022-12-15T09:34:01.363Z,99.90
2022-12-15T09:46:27.726Z,1.00
2022-12-15T09:48:58.094Z,1.00
2022-12-15T09:53:55.766Z,99.90
2022-12-15T10:01:26.438Z,99.90
2022-12-15T10:03:57.348Z,99.90
2022-12-15T10:06:33.113Z,1.00
2022-12-15T10:09:03.481Z,1.00
2022-12-15T10:11:42.710Z,1.00
2022-12-15T10:14:17.420Z,99.90
2022-12-15T10:16:50.904Z,99.90
2022-12-15T10:19:21.170Z,99.90
2022-12-15T10:21:50.715Z,99.90
2022-12-15T10:24:37.450Z,99.90
2022-12-15T10:27:12.369Z,99.90
2022-12-15T10:29:44.291Z,99.90
2022-12-15T10:32:19.631Z,99.90
2022-12-15T10:34:47.846Z,99.90
2022-12-15T10:37:20.878Z,99.90
2022-12-15T10:39:50.234Z,99.90
2022-12-15T10:42:22.621Z,99.90
2022-12-15T10:44:51.518Z,99.90
2022-12-15T10:47:21.306Z,99.90
2022-12-15T10:49:50.199Z,97.40
2022-12-15T10:52:23.164Z,99.90
2022-12-15T10:54:52.260Z,81.10
2022-12-15T10:59:50.401Z,1.00
2022-12-15T11:02:32.900Z,13.60
2022-12-15T11:05:01.988Z,9.50
2022-12-15T11:07:33.951Z,4.50
2022-12-15T11:10:02.473Z,1.00
2022-12-15T11:15:42.501Z,47.30
2022-12-15T11:18:19.561Z,1.00
2022-12-15T11:23:22.466Z,1.00
2022-12-15T11:28:20.684Z,1.00
2022-12-15T11:30:52.011Z,41.00
2022-12-15T11:33:19.872Z,1.00
2022-12-15T11:35:56.009Z,1.00
2022-12-15T11:38:29.911Z,1.00
2022-12-15T11:40:59.719Z,1.00
2022-12-15T11:43:43.845Z,1.00
2022-12-15T11:46:22.834Z,1.00
2022-12-15T11:49:11.377Z,1.00
2022-12-15T11:51:42.570Z,1.00
2022-12-15T11:54:20.172Z,1.00
2022-12-15T11:56:49.180Z,1.00
2022-12-15T11:59:23.431Z,1.00
2022-12-15T12:02:03.349Z,1.00
2022-12-15T12:04:35.772Z,1.00
2022-12-15T12:07:08.948Z,1.00
2022-12-15T12:09:42.854Z,1.00
2022-12-15T12:12:17.294Z,1.00
2022-12-15T12:14:50.568Z,17.30
2022-12-15T12:17:22.327Z,1.00
2022-12-15T12:19:52.888Z,80.20
2022-12-15T12:22:24.005Z,1.00
2022-12-15T12:24:56.399Z,1.00
2022-12-15T12:27:28.497Z,1.00
2022-12-15T12:29:59.301Z,1.00
2022-12-15T12:32:29.852Z,1.00
2022-12-15T12:35:29.841Z,1.00
2022-12-15T12:37:52.017Z,1.00
2022-12-15T12:40:25.886Z,1.00
2022-12-15T12:42:55.482Z,1.00
2022-12-15T12:45:26.565Z,1.00
2022-12-15T12:47:56.419Z,1.00
2022-12-15T12:50:25.969Z,1.00
2022-12-15T12:52:55.116Z,1.00
2022-12-15T12:55:27.185Z,1.00
2022-12-15T12:57:55.752Z,1.00
2022-12-15T13:00:24.896Z,1.00
2022-12-15T13:03:13.599Z,1.00
2022-12-15T13:05:42.363Z,1.00
2022-12-15T13:08:29.738Z,1.00
2022-12-15T13:11:18.911Z,1.00
2022-12-15T13:13:51.297Z,1.00
2022-12-15T13:16:23.199Z,1.00
2022-12-15T13:19:03.438Z,1.00
2022-12-15T13:21:55.034Z,1.00
2022-12-15T13:24:35.683Z,1.00
2022-12-15T13:27:13.771Z,1.00
2022-12-15T13:29:56.489Z,1.00
2022-12-15T13:32:32.667Z,1.00
2022-12-15T13:35:04.733Z,1.00
2022-12-15T13:37:44.934Z,1.00
2022-12-15T13:40:26.317Z,1.00
2022-12-15T13:42:58.358Z,1.00
2022-12-15T13:45:34.352Z,1.00
2022-12-15T13:48:06.751Z,1.00
2022-12-15T13:50:39.645Z,1.00
2022-12-15T13:56:15.785Z,1.00
2022-12-15T13:58:44.863Z,63.40
2022-12-15T14:01:21.318Z,99.90
2022-12-15T14:04:04.096Z,99.90
2022-12-15T14:06:35.912Z,99.90
2022-12-15T14:09:04.638Z,1.00
2022-12-15T14:14:24.495Z,99.90
2022-12-15T14:19:22.553Z,1.00
2022-12-15T14:21:53.990Z,99.90
2022-12-15T14:29:34.855Z,99.90
2022-12-15T14:34:37.034Z,1.00
2022-12-15T14:37:07.675Z,1.00
2022-12-15T14:42:04.363Z,1.00
2022-12-15T14:44:38.266Z,1.00
2022-12-15T14:49:41.245Z,1.00
2022-12-15T14:52:18.173Z,1.00
2022-12-15T14:54:51.858Z,1.00
2022-12-15T14:57:22.500Z,1.00
2022-12-15T14:59:51.349Z,1.00
2022-12-15T15:02:22.960Z,1.00
2022-12-15T15:03:12.306Z,1.00
2022-12-15T15:05:02.976Z,1.00
2022-12-15T15:07:32.153Z,1.00
2022-12-15T15:10:00.268Z,1.00
2022-12-15T15:15:00.813Z,1.00
2022-12-15T15:17:31.968Z,1.00
2022-12-15T15:20:02.839Z,1.00
2022-12-15T15:22:39.705Z,1.00
2022-12-15T15:25:26.443Z,1.00
2022-12-15T15:28:02.307Z,1.00
2022-12-15T15:30:30.776Z,1.00
2022-12-15T15:32:59.206Z,1.00
2022-12-15T15:35:31.334Z,1.00
2022-12-15T15:38:02.614Z,1.00
2022-12-15T15:40:30.488Z,1.00
2022-12-15T15:42:58.418Z,1.00
2022-12-15T15:45:26.326Z,1.00
2022-12-15T15:47:56.326Z,1.00
2022-12-15T15:55:32.340Z,1.00
2022-12-15T15:58:06.413Z,99.90
2022-12-15T16:00:34.675Z,99.90
2022-12-15T16:03:02.728Z,99.90
2022-12-15T16:05:30.688Z,1.00
2022-12-15T16:07:59.570Z,99.90
2022-12-15T16:10:29.185Z,99.90
2022-12-15T16:12:58.436Z,99.90
2022-12-15T16:15:27.212Z,1.00
2022-12-15T16:17:55.761Z,1.00
2022-12-15T16:20:24.497Z,99.90
2022-12-15T16:22:55.492Z,1.00
2022-12-15T16:25:27.171Z,99.90
2022-12-15T16:27:56.514Z,1.00
2022-12-15T16:30:25.786Z,1.00
2022-12-15T16:32:53.961Z,1.00
2022-12-15T16:35:25.537Z,1.00
2022-12-15T16:37:53.530Z,1.00
2022-12-15T16:40:22.857Z,1.00
2022-12-15T16:42:55.204Z,1.00
2022-12-15T16:45:25.588Z,1.00
2022-12-15T16:47:53.808Z,1.00
2022-12-15T16:50:26.132Z,1.00
2022-12-15T16:52:55.043Z,1.00
2022-12-15T16:55:24.484Z,1.00
2022-12-15T16:57:53.016Z,22.40
2022-12-15T17:00:21.995Z,11.70
2022-12-15T17:02:51.661Z,1.00
2022-12-15T17:05:20.314Z,1.00
2022-12-15T17:07:51.624Z,1.00
2022-12-15T17:10:21.357Z,1.00
2022-12-15T17:12:49.541Z,1.00
2022-12-15T17:15:18.729Z,1.00
2022-12-15T17:17:46.651Z,41.40
2022-12-15T17:20:30.303Z,99.90
2022-12-15T17:23:00.029Z,89.90
2022-12-15T17:26:09.437Z,99.90
2022-12-15T17:28:23.562Z,99.90
2022-12-15T17:30:51.899Z,99.90
2022-12-15T17:33:20.434Z,1.00
2022-12-15T17:35:51.225Z,99.90
2022-12-15T17:38:21.046Z,99.90
2022-12-15T17:40:49.743Z,99.90
2022-12-15T17:43:18.565Z,99.90
2022-12-15T17:45:46.616Z,99.90
2022-12-15T17:48:15.188Z,99.90
2022-12-15T17:50:43.193Z,99.90
2022-12-15T17:53:14.162Z,99.90
2022-12-15T17:55:42.161Z,99.90
2022-12-15T17:58:16.421Z,99.90
2022-12-15T18:00:49.024Z,99.90
2022-12-15T18:03:17.373Z,99.90
2022-12-15T18:05:45.636Z,99.90
2022-12-15T18:08:16.128Z,95.10
2022-12-15T18:10:44.627Z,99.90
2022-12-15T18:13:16.005Z,99.90
2022-12-15T18:15:44.214Z,99.90
2022-12-15T18:18:12.157Z,99.90
2022-12-15T18:20:40.155Z,99.90
2022-12-15T18:23:13.386Z,99.90
2022-12-15T18:25:44.017Z,99.90
2022-12-15T18:28:19.752Z,99.90
2022-12-15T18:30:48.031Z,99.90
2022-12-15T18:33:15.909Z,99.90
2022-12-15T18:35:44.814Z,99.90
2022-12-15T18:38:15.289Z,99.90
2022-12-15T18:40:45.908Z,99.90
2022-12-15T18:43:15.067Z,99.90
2022-12-15T18:45:42.974Z,99.90
2022-12-15T18:48:16.037Z,99.90
2022-12-15T18:50:43.946Z,99.90
2022-12-15T18:53:15.925Z,99.90
2022-12-15T18:55:45.142Z,99.90
2022-12-15T18:58:18.746Z,99.90
2022-12-15T19:00:46.865Z,99.90
2022-12-15T19:03:14.780Z,99.90
2022-12-15T19:05:42.727Z,99.90
2022-12-15T19:08:13.286Z,99.90
2022-12-15T19:10:43.767Z,99.90
2022-12-15T19:13:14.631Z,99.90
2022-12-15T19:15:42.508Z,99.90
2022-12-15T19:18:30.839Z,99.90
2022-12-15T19:21:16.558Z,99.90
2022-12-15T19:23:44.517Z,99.90
2022-12-15T19:26:12.742Z,99.90
2022-12-15T19:28:41.951Z,99.90
2022-12-15T19:31:09.858Z,99.90
2022-12-15T19:33:37.774Z,99.90
2022-12-15T19:36:11.648Z,99.90
2022-12-15T19:38:39.562Z,99.90
2022-12-15T19:41:07.472Z,99.90
2022-12-15T19:43:36.119Z,99.90
2022-12-15T19:46:05.699Z,99.90
2022-12-15T19:48:33.616Z,99.90
2022-12-15T19:51:01.421Z,99.90
2022-12-15T19:53:31.101Z,99.90
2022-12-15T19:56:01.335Z,99.90
2022-12-15T19:58:29.962Z,99.90
2022-12-15T20:00:59.484Z,99.90
2022-12-15T20:03:29.881Z,99.90
2022-12-15T20:05:58.567Z,99.90
2022-12-15T20:08:27.061Z,1.00
2022-12-15T20:10:55.784Z,99.90
2022-12-15T20:13:23.892Z,1.00
2022-12-15T20:15:51.777Z,99.90
2022-12-15T20:18:20.199Z,99.90
2022-12-15T20:20:50.092Z,99.90
2022-12-15T20:23:19.327Z,99.90
2022-12-15T20:25:47.342Z,99.90
2022-12-15T20:28:21.264Z,99.90
2022-12-15T20:30:49.769Z,99.90
2022-12-15T20:33:17.834Z,99.90
2022-12-15T20:35:46.678Z,99.90
2022-12-15T20:38:18.292Z,99.90
2022-12-15T20:40:46.230Z,99.90
2022-12-15T20:43:15.541Z,99.90
2022-12-15T20:45:43.384Z,99.90
2022-12-15T20:48:12.808Z,99.90
2022-12-15T20:50:42.825Z,99.90
2022-12-15T20:53:19.541Z,99.90
2022-12-15T20:55:48.169Z,99.90
2022-12-15T20:58:16.232Z,99.90
2022-12-15T21:00:44.245Z,99.90
2022-12-15T21:03:19.918Z,99.90
2022-12-15T21:05:48.191Z,99.90
2022-12-15T21:08:19.322Z,99.90
2022-12-15T21:10:47.332Z,99.90
2022-12-15T21:13:19.019Z,99.90
2022-12-15T21:15:46.961Z,99.90
2022-12-15T21:19:11.060Z,99.90
2022-12-15T21:21:02.714Z,99.90
2022-12-15T21:23:32.889Z,99.90
2022-12-15T21:26:03.684Z,99.90
2022-12-15T21:28:31.763Z,99.90
2022-12-15T21:30:59.889Z,1.00
2022-12-15T21:33:27.829Z,99.90
2022-12-15T21:35:55.680Z,1.00
2022-12-15T21:38:32.028Z,99.90
2022-12-15T21:41:03.040Z,99.90
2022-12-15T21:43:31.988Z,99.90
2022-12-15T21:46:00.676Z,99.90
2022-12-15T21:48:46.105Z,1.00
2022-12-15T21:51:15.571Z,1.00
2022-12-15T21:53:44.148Z,1.00
2022-12-15T21:56:17.089Z,1.00
2022-12-15T21:58:44.940Z,1.00
2022-12-15T22:01:16.282Z,99.90
2022-12-15T22:03:45.928Z,1.00
2022-12-15T22:06:17.906Z,99.90
2022-12-15T22:08:45.907Z,99.90
2022-12-15T22:11:20.155Z,1.00
2022-12-15T22:13:48.173Z,1.00
2022-12-15T22:16:16.095Z,1.00
2022-12-15T22:18:44.398Z,1.00
2022-12-15T22:21:12.305Z,1.00
2022-12-15T22:23:40.182Z,1.00
2022-12-15T22:26:08.241Z,1.00
2022-12-15T22:28:37.712Z,1.00
2022-12-15T22:31:05.730Z,1.00
2022-12-15T22:33:33.624Z,44.20
2022-12-15T22:36:01.588Z,1.00
2022-12-15T22:38:29.649Z,1.00
2022-12-15T22:40:59.134Z,1.00
2022-12-15T22:43:30.046Z,1.00
2022-12-15T22:45:59.353Z,1.00
2022-12-15T22:48:29.786Z,1.00
2022-12-15T22:50:57.879Z,1.00
2022-12-15T22:53:27.713Z,1.00
2022-12-15T22:55:55.635Z,1.00
2022-12-15T22:58:24.854Z,1.00
2022-12-15T23:00:53.623Z,1.00
2022-12-15T23:03:23.305Z,44.80
2022-12-15T23:05:51.203Z,99.90
2022-12-15T23:08:19.583Z,99.90
2022-12-15T23:11:04.887Z,1.00
2022-12-15T23:13:33.131Z,99.90
2022-12-15T23:16:18.638Z,99.90
2022-12-15T23:18:48.153Z,1.00
2022-12-15T23:21:16.086Z,1.00
2022-12-15T23:23:43.956Z,99.90
2022-12-15T23:26:11.850Z,56.30
2022-12-15T23:28:39.744Z,59.70
2022-12-15T23:31:08.245Z,99.90
2022-12-15T23:33:36.593Z,99.90
2022-12-15T23:36:06.257Z,1.00
2022-12-15T23:38:34.159Z,1.00
2022-12-15T23:41:01.980Z,99.90
2022-12-15T23:43:32.152Z,99.90
2022-12-15T23:46:01.064Z,1.00
2022-12-15T23:48:30.709Z,99.90
2022-12-15T23:51:04.603Z,99.90
2022-12-15T23:53:34.504Z,1.00
2022-12-15T23:56:10.363Z,99.90
2022-12-15T23:58:39.404Z,99.90
